Saint Bonnet de Bellac- Haute Vienne - France
Donnes mto: vendredi, 14/09/2012
Date Horaire Temp. E. Hum. E. P.atmo. Pluie Vent Direction Direction Ensoleilleme Solaire P. de rose Temp au vent Rafales
14/09/2012 00:00 8,8 C 75 % 1021,0 hPa 0,0 mm 0,0 km/h (0 Bft) N-NE 22 0 min 0 W/m 4,6 C 8,8 C 0,0 km/h (0 Bft)
14/09/2012 00:10 8,6 C 76 % 1021,0 hPa 0,0 mm 0,0 km/h (0 Bft) N-NE 22 0 min 0 W/m 4,6 C 8,6 C 0,0 km/h (0 Bft)
14/09/2012 00:20 8,4 C 76 % 1020,9 hPa 0,0 mm 0,0 km/h (0 Bft) N-NE 22 0 min 0 W/m 4,4 C 8,4 C 0,0 km/h (0 Bft)
14/09/2012 00:30 8,3 C 76 % 1020,9 hPa 0,0 mm 0,0 km/h (0 Bft) N-NE 22 0 min 0 W/m 4,3 C 8,3 C 0,0 km/h (0 Bft)
14/09/2012 00:40 8,1 C 77 % 1020,9 hPa 0,0 mm 0,0 km/h (0 Bft) N-NE 22 0 min 0 W/m 4,3 C 8,1 C 0,0 km/h (0 Bft)
14/09/2012 00:50 7,9 C 78 % 1020,8 hPa 0,0 mm 0,0 km/h (0 Bft) N-NE 22 0 min 0 W/m 4,3 C 7,9 C 0,0 km/h (0 Bft)
14/09/2012 01:00 7,8 C 78 % 1020,9 hPa 0,0 mm 0,0 km/h (0 Bft) N-NE 22 0 min 0 W/m 4,2 C 7,8 C 0,0 km/h (0 Bft)
14/09/2012 01:10 7,8 C 79 % 1021,0 hPa 0,0 mm 0,0 km/h (0 Bft) N-NE 22 0 min 0 W/m 4,4 C 7,8 C 0,0 km/h (0 Bft)
14/09/2012 01:20 7,8 C 80 % 1021,0 hPa 0,0 mm 0,0 km/h (0 Bft) N-NE 22 0 min 0 W/m 4,6 C 7,8 C 0,0 km/h (0 Bft)
14/09/2012 01:30 7,5 C 80 % 1020,9 hPa 0,0 mm 0,0 km/h (0 Bft) N-NE 22 0 min 0 W/m 4,3 C 7,5 C 0,0 km/h (0 Bft)
14/09/2012 01:40 7,3 C 80 % 1020,8 hPa 0,0 mm 0,0 km/h (0 Bft) N-NE 22 0 min 0 W/m 4,1 C 7,3 C 0,0 km/h (0 Bft)
14/09/2012 01:50 7,2 C 81 % 1020,8 hPa 0,0 mm 0,0 km/h (0 Bft) N-NE 22 0 min 0 W/m 4,2 C 7,2 C 0,0 km/h (0 Bft)
14/09/2012 02:00 6,9 C 81 % 1020,7 hPa 0,0 mm 0,0 km/h (0 Bft) N-NE 22 0 min 0 W/m 3,9 C 6,9 C 0,0 km/h (0 Bft)
14/09/2012 02:10 6,8 C 82 % 1020,7 hPa 0,0 mm 0,0 km/h (0 Bft) N-NE 22 0 min 0 W/m 3,9 C 6,8 C 0,0 km/h (0 Bft)
14/09/2012 02:20 6,8 C 82 % 1020,7 hPa 0,0 mm 0,0 km/h (0 Bft) N-NE 22 0 min 0 W/m 3,9 C 6,8 C 0,0 km/h (0 Bft)
14/09/2012 02:30 6,7 C 82 % 1020,7 hPa 0,0 mm 0,0 km/h (0 Bft) N-NE 22 0 min 0 W/m 3,8 C 6,7 C 0,0 km/h (0 Bft)
14/09/2012 02:40 6,6 C 82 % 1020,8 hPa 0,0 mm 0,0 km/h (0 Bft) N-NE 22 0 min 0 W/m 3,8 C 6,6 C 0,0 km/h (0 Bft)
14/09/2012 02:50 6,5 C 83 % 1020,8 hPa 0,0 mm 0,0 km/h (0 Bft) N-NE 22 0 min 0 W/m 3,8 C 6,5 C 0,0 km/h (0 Bft)
14/09/2012 03:02 6,3 C 83 % 1020,7 hPa 0,0 mm 0,0 km/h (0 Bft) N-NE 22 0 min 0 W/m 3,6 C 6,3 C 0,0 km/h (0 Bft)
14/09/2012 03:10 6,1 C 83 % 1020,6 hPa 0,0 mm 0,0 km/h (0 Bft) N-NE 22 0 min 0 W/m 3,4 C 6,1 C 0,0 km/h (0 Bft)
14/09/2012 03:20 6,1 C 84 % 1020,6 hPa 0,0 mm 0,0 km/h (0 Bft) NE 45 0 min 0 W/m 3,6 C 6,1 C 0,0 km/h (0 Bft)
14/09/2012 03:30 6,3 C 84 % 1020,5 hPa 0,0 mm 0,0 km/h (0 Bft) E-SE 112 0 min 0 W/m 3,8 C 6,3 C 0,0 km/h (0 Bft)
14/09/2012 03:40 6,1 C 84 % 1020,5 hPa 0,0 mm 0,0 km/h (0 Bft) E-SE 112 0 min 0 W/m 3,6 C 6,1 C 0,0 km/h (0 Bft)
14/09/2012 03:50 5,9 C 84 % 1020,5 hPa 0,0 mm 0,0 km/h (0 Bft) E-SE 112 0 min 0 W/m 3,4 C 5,9 C 0,0 km/h (0 Bft)
14/09/2012 04:00 5,8 C 84 % 1020,4 hPa 0,0 mm 0,0 km/h (0 Bft) E-SE 112 0 min 0 W/m 3,3 C 5,8 C 0,0 km/h (0 Bft)
14/09/2012 04:10 5,8 C 85 % 1020,4 hPa 0,0 mm 0,0 km/h (0 Bft) E-SE 112 0 min 0 W/m 3,5 C 5,8 C 0,0 km/h (0 Bft)
14/09/2012 04:20 5,5 C 85 % 1020,4 hPa 0,0 mm 0,0 km/h (0 Bft) E-SE 112 0 min 0 W/m 3,2 C 5,5 C 0,0 km/h (0 Bft)
14/09/2012 04:30 5,4 C 85 % 1020,4 hPa 0,0 mm 0,0 km/h (0 Bft) E-SE 112 0 min 0 W/m 3,1 C 5,4 C 0,0 km/h (0 Bft)
14/09/2012 04:40 5,4 C 85 % 1020,4 hPa 0,0 mm 0,0 km/h (0 Bft) E 90 0 min 0 W/m 3,1 C 5,4 C 0,0 km/h (0 Bft)
14/09/2012 04:50 5,4 C 86 % 1020,3 hPa 0,0 mm 0,0 km/h (0 Bft) E-SE 112 0 min 0 W/m 3,3 C 5,4 C 0,0 km/h (0 Bft)
14/09/2012 05:00 5,4 C 86 % 1020,3 hPa 0,0 mm 0,0 km/h (0 Bft) E-SE 112 0 min 0 W/m 3,3 C 5,4 C 0,0 km/h (0 Bft)
14/09/2012 05:10 5,3 C 86 % 1020,5 hPa 0,0 mm 0,0 km/h (0 Bft) E-SE 112 0 min 0 W/m 3,2 C 5,3 C 0,0 km/h (0 Bft)
14/09/2012 05:20 5,2 C 86 % 1020,5 hPa 0,0 mm 0,0 km/h (0 Bft) E-SE 112 0 min 0 W/m 3,1 C 5,2 C 0,0 km/h (0 Bft)
14/09/2012 05:30 5,1 C 86 % 1020,4 hPa 0,0 mm 0,0 km/h (0 Bft) E-SE 112 0 min 0 W/m 3,0 C 5,1 C 0,0 km/h (0 Bft)
14/09/2012 05:40 4,9 C 86 % 1020,3 hPa 0,0 mm 0,0 km/h (0 Bft) E-SE 112 0 min 0 W/m 2,8 C 4,9 C 0,0 km/h (0 Bft)
14/09/2012 05:50 4,9 C 86 % 1020,2 hPa 0,0 mm 0,0 km/h (0 Bft) E-SE 112 0 min 0 W/m 2,8 C 4,9 C 0,0 km/h (0 Bft)
14/09/2012 06:00 4,8 C 86 % 1020,5 hPa 0,0 mm 0,0 km/h (0 Bft) E-SE 112 0 min 0 W/m 2,7 C 4,8 C 0,0 km/h (0 Bft)
14/09/2012 06:10 4,8 C 86 % 1020,5 hPa 0,0 mm 0,0 km/h (0 Bft) E-SE 112 0 min 0 W/m 2,7 C 4,8 C 0,0 km/h (0 Bft)
14/09/2012 06:20 4,6 C 86 % 1020,6 hPa 0,0 mm 0,0 km/h (0 Bft) E-SE 112 0 min 0 W/m 2,5 C 4,6 C 0,0 km/h (0 Bft)
14/09/2012 06:30 4,6 C 87 % 1020,5 hPa 0,0 mm 0,0 km/h (0 Bft) E-SE 112 0 min 0 W/m 2,6 C 4,6 C 0,0 km/h (0 Bft)
14/09/2012 06:40 4,5 C 87 % 1020,6 hPa 0,0 mm 0,0 km/h (0 Bft) E-SE 112 0 min 0 W/m 2,5 C 4,5 C 0,0 km/h (0 Bft)
14/09/2012 06:50 4,6 C 88 % 1020,7 hPa 0,0 mm 0,0 km/h (0 Bft) E-SE 112 0 min 0 W/m 2,8 C 4,6 C 0,0 km/h (0 Bft)
14/09/2012 07:00 4,6 C 88 % 1020,5 hPa 0,0 mm 0,0 km/h (0 Bft) E-SE 112 0 min 0 W/m 2,8 C 4,6 C 0,0 km/h (0 Bft)
14/09/2012 07:10 4,8 C 88 % 1020,5 hPa 0,0 mm 0,0 km/h (0 Bft) E-SE 112 0 min 0 W/m 3,0 C 4,8 C 0,0 km/h (0 Bft)
14/09/2012 07:20 4,6 C 88 % 1020,6 hPa 0,0 mm 0,0 km/h (0 Bft) E-SE 112 0 min 0 W/m 2,8 C 4,6 C 0,0 km/h (0 Bft)
14/09/2012 07:30 4,6 C 88 % 1020,5 hPa 0,0 mm 0,0 km/h (0 Bft) E-SE 112 0 min 0 W/m 2,8 C 4,6 C 0,0 km/h (0 Bft)
14/09/2012 07:40 4,6 C 88 % 1020,5 hPa 0,0 mm 0,0 km/h (0 Bft) E-SE 112 0 min 0 W/m 2,8 C 4,6 C 0,0 km/h (0 Bft)
14/09/2012 07:50 4,6 C 88 % 1020,6 hPa 0,0 mm 0,0 km/h (0 Bft) E-SE 112 0 min 0 W/m 2,8 C 4,6 C 0,0 km/h (0 Bft)
14/09/2012 08:00 4,9 C 88 % 1020,7 hPa 0,0 mm 0,0 km/h (0 Bft) E-SE 112 0 min 0 W/m 3,1 C 4,9 C 0,0 km/h (0 Bft)
14/09/2012 08:10 4,9 C 88 % 1020,7 hPa 0,0 mm 0,0 km/h (0 Bft) E-SE 112 0 min 0 W/m 3,1 C 4,9 C 0,0 km/h (0 Bft)
14/09/2012 08:20 5,1 C 88 % 1020,8 hPa 0,0 mm 0,0 km/h (0 Bft) E-SE 112 0 min 0 W/m 3,3 C 5,1 C 0,0 km/h (0 Bft)
14/09/2012 08:30 5,2 C 89 % 1020,8 hPa 0,0 mm 0,0 km/h (0 Bft) E-SE 112 0 min 0 W/m 3,5 C 5,2 C 0,0 km/h (0 Bft)
14/09/2012 08:40 5,6 C 89 % 1020,8 hPa 0,0 mm 0,0 km/h (0 Bft) E-SE 112 0 min 0 W/m 3,9 C 5,6 C 0,0 km/h (0 Bft)
14/09/2012 08:50 6,4 C 90 % 1020,7 hPa 0,0 mm 0,0 km/h (0 Bft) E-SE 112 0 min 0 W/m 4,9 C 6,4 C 0,0 km/h (0 Bft)
14/09/2012 09:00 7,4 C 90 % 1020,8 hPa 0,0 mm 0,0 km/h (0 Bft) E-SE 112 0 min 0 W/m 5,9 C 7,4 C 0,0 km/h (0 Bft)
14/09/2012 09:10 8,5 C 90 % 1020,8 hPa 0,0 mm 0,0 km/h (0 Bft) E-SE 112 0 min 0 W/m 7,0 C 8,5 C 0,0 km/h (0 Bft)
14/09/2012 09:20 9,6 C 90 % 1020,9 hPa 0,0 mm 0,0 km/h (0 Bft) E-SE 112 0 min 0 W/m 8,0 C 9,6 C 0,0 km/h (0 Bft)
14/09/2012 09:30 10,8 C 88 % 1020,7 hPa 0,0 mm 0,0 km/h (0 Bft) E-SE 112 0 min 0 W/m 8,9 C 10,8 C 0,0 km/h (0 Bft)
14/09/2012 09:40 12,1 C 84 % 1020,8 hPa 0,0 mm 0,0 km/h (0 Bft) SE 135 0 min 0 W/m 9,5 C 12,1 C 0,0 km/h (0 Bft)
14/09/2012 09:50 13,4 C 81 % 1020,9 hPa 0,0 mm 0,0 km/h (0 Bft) SE 135 0 min 0 W/m 10,2 C 13,4 C 0,0 km/h (0 Bft)
14/09/2012 10:00 14,4 C 77 % 1020,9 hPa 0,0 mm 0,0 km/h (0 Bft) S-SE 157 0 min 0 W/m 10,4 C 14,4 C 0,0 km/h (0 Bft)
14/09/2012 10:10 15,3 C 75 % 1021,1 hPa 0,0 mm 0,0 km/h (0 Bft) S-SE 157 0 min 0 W/m 10,9 C 15,3 C 0,0 km/h (0 Bft)
14/09/2012 10:20 16,1 C 72 % 1021,0 hPa 0,0 mm 0,0 km/h (0 Bft) O-SO 247 0 min 0 W/m 11,0 C 16,1 C 0,0 km/h (0 Bft)
14/09/2012 10:30 16,9 C 69 % 1021,0 hPa 0,0 mm 0,4 km/h (0 Bft) SO 225 0 min 0 W/m 11,2 C 16,9 C 3,2 km/h (1 Bft)
14/09/2012 10:40 17,6 C 63 % 1021,1 hPa 0,0 mm 2,5 km/h (1 Bft) S-SO 202 0 min 0 W/m 10,5 C 17,6 C 5,8 km/h (2 Bft)
14/09/2012 10:50 18,0 C 60 % 1021,1 hPa 0,0 mm 1,8 km/h (1 Bft) SO 225 0 min 0 W/m 10,1 C 18,0 C 4,0 km/h (1 Bft)
14/09/2012 11:00 18,6 C 60 % 1021,3 hPa 0,0 mm 4,0 km/h (1 Bft) S 180 0 min 0 W/m 10,7 C 18,6 C 8,3 km/h (2 Bft)
14/09/2012 11:10 19,1 C 57 % 1021,3 hPa 0,0 mm 2,5 km/h (1 Bft) O-NO 292 0 min 0 W/m 10,4 C 19,1 C 7,9 km/h (2 Bft)
14/09/2012 11:20 19,8 C 55 % 1021,2 hPa 0,0 mm 2,2 km/h (1 Bft) O-SO 247 0 min 0 W/m 10,5 C 19,8 C 7,6 km/h (2 Bft)
14/09/2012 11:30 20,1 C 53 % 1021,1 hPa 0,0 mm 4,0 km/h (1 Bft) S-SO 202 0 min 0 W/m 10,2 C 20,1 C 11,2 km/h (2 Bft)
14/09/2012 11:40 20,3 C 52 % 1021,0 hPa 0,0 mm 2,2 km/h (1 Bft) O-SO 247 0 min 0 W/m 10,1 C 20,3 C 2,2 km/h (1 Bft)
14/09/2012 11:50 20,6 C 51 % 1021,0 hPa 0,0 mm 2,5 km/h (1 Bft) O-SO 247 0 min 0 W/m 10,1 C 20,6 C 8,3 km/h (2 Bft)
14/09/2012 12:00 21,1 C 51 % 1021,1 hPa 0,0 mm 1,1 km/h (1 Bft) O 270 0 min 0 W/m 10,6 C 21,1 C 3,6 km/h (1 Bft)
14/09/2012 12:10 21,4 C 50 % 1021,1 hPa 0,0 mm 0,0 km/h (0 Bft) NO 315 0 min 0 W/m 10,5 C 21,4 C 0,0 km/h (0 Bft)
14/09/2012 12:20 21,6 C 48 % 1021,0 hPa 0,0 mm 5,4 km/h (2 Bft) O-NO 292 0 min 0 W/m 10,1 C 21,6 C 12,2 km/h (2 Bft)
14/09/2012 12:30 21,8 C 48 % 1020,8 hPa 0,0 mm 7,9 km/h (2 Bft) O 270 0 min 0 W/m 10,3 C 21,8 C 12,6 km/h (3 Bft)
14/09/2012 12:40 22,1 C 48 % 1020,7 hPa 0,0 mm 2,2 km/h (1 Bft) O 270 0 min 0 W/m 10,6 C 22,1 C 4,3 km/h (1 Bft)
14/09/2012 12:50 22,2 C 47 % 1020,6 hPa 0,0 mm 0,7 km/h (0 Bft) N-NO 337 0 min 0 W/m 10,3 C 22,2 C 0,7 km/h (0 Bft)
14/09/2012 13:00 22,4 C 47 % 1020,6 hPa 0,0 mm 4,7 km/h (1 Bft) N-NO 337 0 min 0 W/m 10,5 C 22,4 C 8,6 km/h (2 Bft)
14/09/2012 13:10 22,5 C 45 % 1020,6 hPa 0,0 mm 6,1 km/h (2 Bft) SO 225 0 min 0 W/m 10,0 C 22,5 C 10,4 km/h (2 Bft)
14/09/2012 13:20 22,8 C 46 % 1020,5 hPa 0,0 mm 8,3 km/h (2 Bft) O-NO 292 0 min 0 W/m 10,6 C 22,8 C 8,3 km/h (2 Bft)
14/09/2012 13:30 22,9 C 45 % 1020,4 hPa 0,0 mm 4,0 km/h (1 Bft) NO 315 0 min 0 W/m 10,3 C 22,9 C 4,3 km/h (1 Bft)
14/09/2012 13:40 22,9 C 45 % 1020,5 hPa 0,0 mm 0,7 km/h (0 Bft) NO 315 0 min 0 W/m 10,3 C 22,9 C 3,2 km/h (1 Bft)
14/09/2012 13:50 23,2 C 45 % 1020,4 hPa 0,0 mm 0,0 km/h (0 Bft) O 270 0 min 0 W/m 10,6 C 23,2 C 1,8 km/h (1 Bft)
14/09/2012 14:00 23,3 C 44 % 1020,2 hPa 0,0 mm 2,2 km/h (1 Bft) NO 315 0 min 0 W/m 10,4 C 23,3 C 7,9 km/h (2 Bft)
14/09/2012 14:10 23,4 C 44 % 1020,2 hPa 0,0 mm 2,2 km/h (1 Bft) O 270 0 min 0 W/m 10,4 C 23,4 C 8,3 km/h (2 Bft)
14/09/2012 14:20 23,6 C 42 % 1020,1 hPa 0,0 mm 10,1 km/h (2 Bft) N-NO 337 0 min 0 W/m 9,9 C 23,6 C 18,0 km/h (3 Bft)
14/09/2012 14:30 23,6 C 43 % 1019,9 hPa 0,0 mm 0,7 km/h (0 Bft) O-SO 247 0 min 0 W/m 10,3 C 23,6 C 4,0 km/h (1 Bft)
14/09/2012 14:40 23,4 C 42 % 1019,7 hPa 0,0 mm 3,6 km/h (1 Bft) O-SO 247 0 min 0 W/m 9,7 C 23,4 C 3,6 km/h (1 Bft)
14/09/2012 14:50 23,1 C 43 % 1019,6 hPa 0,0 mm 1,8 km/h (1 Bft) SO 225 0 min 0 W/m 9,8 C 23,1 C 3,2 km/h (1 Bft)
14/09/2012 15:00 23,2 C 43 % 1019,4 hPa 0,0 mm 2,2 km/h (1 Bft) NO 315 0 min 0 W/m 9,9 C 23,2 C 6,1 km/h (2 Bft)
14/09/2012 15:10 23,4 C 43 % 1019,3 hPa 0,0 mm 1,1 km/h (1 Bft) O-SO 247 0 min 0 W/m 10,1 C 23,4 C 3,6 km/h (1 Bft)
14/09/2012 15:20 23,4 C 42 % 1019,0 hPa 0,0 mm 2,2 km/h (1 Bft) O-SO 247 0 min 0 W/m 9,7 C 23,4 C 5,8 km/h (2 Bft)
14/09/2012 15:30 23,4 C 43 % 1019,0 hPa 0,0 mm 2,9 km/h (1 Bft) O-NO 292 0 min 0 W/m 10,1 C 23,4 C 3,6 km/h (1 Bft)
14/09/2012 15:40 23,6 C 43 % 1018,8 hPa 0,0 mm 3,2 km/h (1 Bft) N-NO 337 0 min 0 W/m 10,3 C 23,6 C 9,4 km/h (2 Bft)
14/09/2012 15:50 23,8 C 41 % 1018,7 hPa 0,0 mm 6,5 km/h (2 Bft) O-SO 247 0 min 0 W/m 9,7 C 23,8 C 6,5 km/h (2 Bft)
14/09/2012 16:00 23,7 C 42 % 1018,6 hPa 0,0 mm 2,5 km/h (1 Bft) O-NO 292 0 min 0 W/m 10,0 C 23,7 C 9,0 km/h (2 Bft)
14/09/2012 16:10 23,8 C 41 % 1018,5 hPa 0,0 mm 3,6 km/h (1 Bft) SO 225 0 min 0 W/m 9,7 C 23,8 C 10,1 km/h (2 Bft)
14/09/2012 16:20 23,8 C 42 % 1018,6 hPa 0,0 mm 5,0 km/h (1 Bft) NE 45 0 min 0 W/m 10,1 C 23,8 C 8,6 km/h (2 Bft)
14/09/2012 16:30 23,8 C 41 % 1018,4 hPa 0,0 mm 0,7 km/h (0 Bft) SO 225 0 min 0 W/m 9,7 C 23,8 C 4,3 km/h (1 Bft)
14/09/2012 16:40 23,9 C 41 % 1018,3 hPa 0,0 mm 2,9 km/h (1 Bft) NO 315 0 min 0 W/m 9,8 C 23,9 C 2,9 km/h (1 Bft)
14/09/2012 16:50 23,9 C 41 % 1018,3 hPa 0,0 mm 5,0 km/h (1 Bft) N-NO 337 0 min 0 W/m 9,8 C 23,9 C 9,0 km/h (2 Bft)
14/09/2012 17:00 24,0 C 41 % 1018,1 hPa 0,0 mm 5,0 km/h (1 Bft) N-NO 337 0 min 0 W/m 9,9 C 24,0 C 10,4 km/h (2 Bft)
14/09/2012 17:10 23,9 C 41 % 1018,0 hPa 0,0 mm 2,2 km/h (1 Bft) E-NE 67 0 min 0 W/m 9,8 C 23,9 C 6,1 km/h (2 Bft)
14/09/2012 17:20 23,8 C 41 % 1017,8 hPa 0,0 mm 4,0 km/h (1 Bft) O-SO 247 0 min 0 W/m 9,7 C 23,8 C 6,1 km/h (2 Bft)
14/09/2012 17:30 23,7 C 42 % 1017,8 hPa 0,0 mm 4,7 km/h (1 Bft) SO 225 0 min 0 W/m 10,0 C 23,7 C 13,3 km/h (3 Bft)
14/09/2012 17:40 23,6 C 43 % 1017,8 hPa 0,0 mm 9,0 km/h (2 Bft) N-NO 337 0 min 0 W/m 10,3 C 23,6 C 15,5 km/h (3 Bft)
14/09/2012 17:50 23,6 C 44 % 1017,7 hPa 0,0 mm 5,8 km/h (2 Bft) O-NO 292 0 min 0 W/m 10,6 C 23,6 C 9,7 km/h (2 Bft)
14/09/2012 18:00 23,6 C 45 % 1017,9 hPa 0,0 mm 7,9 km/h (2 Bft) O 270 0 min 0 W/m 11,0 C 23,6 C 9,7 km/h (2 Bft)
14/09/2012 18:10 23,5 C 45 % 1017,8 hPa 0,0 mm 11,2 km/h (2 Bft) NO 315 0 min 0 W/m 10,9 C 23,5 C 19,8 km/h (3 Bft)
14/09/2012 18:20 23,4 C 46 % 1017,7 hPa 0,0 mm 5,0 km/h (1 Bft) N-NO 337 0 min 0 W/m 11,1 C 23,4 C 10,8 km/h (2 Bft)
14/09/2012 18:30 23,4 C 46 % 1017,6 hPa 0,0 mm 0,0 km/h (0 Bft) O 270 0 min 0 W/m 11,1 C 23,4 C 0,0 km/h (0 Bft)
14/09/2012 18:40 23,3 C 46 % 1017,8 hPa 0,0 mm 1,4 km/h (1 Bft) S-SO 202 0 min 0 W/m 11,0 C 23,3 C 4,3 km/h (1 Bft)
14/09/2012 18:50 23,1 C 47 % 1017,7 hPa 0,0 mm 1,8 km/h (1 Bft) O 270 0 min 0 W/m 11,2 C 23,1 C 1,8 km/h (1 Bft)
14/09/2012 19:00 22,8 C 47 % 1017,6 hPa 0,0 mm 2,2 km/h (1 Bft) N-NO 337 0 min 0 W/m 10,9 C 22,8 C 2,9 km/h (1 Bft)
14/09/2012 19:10 22,8 C 48 % 1017,6 hPa 0,0 mm 0,7 km/h (0 Bft) O 270 0 min 0 W/m 11,2 C 22,8 C 4,0 km/h (1 Bft)
14/09/2012 19:20 22,4 C 48 % 1017,7 hPa 0,0 mm 2,2 km/h (1 Bft) N-NO 337 0 min 0 W/m 10,8 C 22,4 C 8,3 km/h (2 Bft)
14/09/2012 19:30 22,1 C 49 % 1017,7 hPa 0,0 mm 1,8 km/h (1 Bft) N-NE 22 0 min 0 W/m 10,9 C 22,1 C 4,3 km/h (1 Bft)
14/09/2012 19:40 21,7 C 50 % 1017,8 hPa 0,0 mm 1,8 km/h (1 Bft) O 270 0 min 0 W/m 10,8 C 21,7 C 2,9 km/h (1 Bft)
14/09/2012 19:50 20,9 C 51 % 1017,7 hPa 0,0 mm 0,4 km/h (0 Bft) NO 315 0 min 0 W/m 10,4 C 20,9 C 4,0 km/h (1 Bft)
14/09/2012 20:00 20,3 C 52 % 1017,7 hPa 0,0 mm 0,0 km/h (0 Bft) N-NO 337 0 min 0 W/m 10,1 C 20,3 C 0,0 km/h (0 Bft)
14/09/2012 20:10 19,6 C 54 % 1017,8 hPa 0,0 mm 1,1 km/h (1 Bft) O 270 0 min 0 W/m 10,0 C 19,6 C 3,6 km/h (1 Bft)
14/09/2012 20:20 18,9 C 55 % 1017,9 hPa 0,0 mm 0,0 km/h (0 Bft) O 270 0 min 0 W/m 9,7 C 18,9 C 0,0 km/h (0 Bft)
14/09/2012 20:30 18,4 C 56 % 1018,1 hPa 0,0 mm 0,4 km/h (0 Bft) N 360 0 min 0 W/m 9,5 C 18,4 C 4,3 km/h (1 Bft)
14/09/2012 20:40 17,9 C 58 % 1018,2 hPa 0,0 mm 0,4 km/h (0 Bft) N-NE 22 0 min 0 W/m 9,5 C 17,9 C 3,6 km/h (1 Bft)
14/09/2012 20:50 17,4 C 59 % 1018,3 hPa 0,0 mm 0,0 km/h (0 Bft) N-NO 337 0 min 0 W/m 9,3 C 17,4 C 0,0 km/h (0 Bft)
14/09/2012 21:00 16,9 C 61 % 1018,6 hPa 0,0 mm 2,9 km/h (1 Bft) NO 315 0 min 0 W/m 9,3 C 16,9 C 4,0 km/h (1 Bft)
14/09/2012 21:10 16,6 C 63 % 1018,6 hPa 0,0 mm 0,7 km/h (0 Bft) NO 315 0 min 0 W/m 9,5 C 16,6 C 0,7 km/h (0 Bft)
14/09/2012 21:20 16,3 C 64 % 1018,8 hPa 0,0 mm 2,2 km/h (1 Bft) NE 45 0 min 0 W/m 9,5 C 16,3 C 6,1 km/h (2 Bft)
14/09/2012 21:30 15,9 C 65 % 1018,8 hPa 0,0 mm 0,0 km/h (0 Bft) N-NE 22 0 min 0 W/m 9,3 C 15,9 C 0,0 km/h (0 Bft)
14/09/2012 21:40 15,8 C 66 % 1018,9 hPa 0,0 mm 0,0 km/h (0 Bft) N-NE 22 0 min 0 W/m 9,5 C 15,8 C 0,0 km/h (0 Bft)
14/09/2012 21:50 15,4 C 67 % 1019,1 hPa 0,0 mm 0,0 km/h (0 Bft) N-NE 22 0 min 0 W/m 9,3 C 15,4 C 0,0 km/h (0 Bft)
14/09/2012 22:00 15,3 C 68 % 1019,1 hPa 0,0 mm 0,0 km/h (0 Bft) N 360 0 min 0 W/m 9,4 C 15,3 C 0,0 km/h (0 Bft)
14/09/2012 22:10 15,1 C 69 % 1019,2 hPa 0,0 mm 0,0 km/h (0 Bft) N-NE 22 0 min 0 W/m 9,5 C 15,1 C 0,0 km/h (0 Bft)
14/09/2012 22:20 15,0 C 70 % 1019,2 hPa 0,0 mm 0,0 km/h (0 Bft) N 360 0 min 0 W/m 9,6 C 15,0 C 0,0 km/h (0 Bft)
14/09/2012 22:30 14,8 C 70 % 1019,3 hPa 0,0 mm 2,2 km/h (1 Bft) N 360 0 min 0 W/m 9,4 C 14,8 C 2,2 km/h (1 Bft)
14/09/2012 22:40 14,8 C 70 % 1019,3 hPa 0,0 mm 0,4 km/h (0 Bft) N 360 0 min 0 W/m 9,4 C 14,8 C 0,4 km/h (0 Bft)
14/09/2012 22:50 14,6 C 71 % 1019,4 hPa 0,0 mm 0,0 km/h (0 Bft) N 360 0 min 0 W/m 9,4 C 14,6 C 0,0 km/h (0 Bft)
14/09/2012 23:00 14,5 C 71 % 1019,6 hPa 0,0 mm 0,0 km/h (0 Bft) N 360 0 min 0 W/m 9,3 C 14,5 C 0,0 km/h (0 Bft)
14/09/2012 23:10 14,4 C 71 % 1019,6 hPa 0,0 mm 0,0 km/h (0 Bft) N 360 0 min 0 W/m 9,2 C 14,4 C 0,0 km/h (0 Bft)
14/09/2012 23:20 14,4 C 72 % 1019,6 hPa 0,0 mm 0,0 km/h (0 Bft) N 360 0 min 0 W/m 9,4 C 14,4 C 0,0 km/h (0 Bft)
14/09/2012 23:30 14,5 C 72 % 1019,6 hPa 0,0 mm 0,0 km/h (0 Bft) N 360 0 min 0 W/m 9,5 C 14,5 C 0,0 km/h (0 Bft)
14/09/2012 23:40 14,6 C 72 % 1019,5 hPa 0,0 mm 0,0 km/h (0 Bft) N 360 0 min 0 W/m 9,6 C 14,6 C 0,0 km/h (0 Bft)
14/09/2012 23:50 14,6 C 72 % 1019,8 hPa 0,0 mm 0,0 km/h (0 Bft) N 360 0 min 0 W/m 9,6 C 14,6 C 0,0 km/h (0 Bft)
_ Min-Heure 06:40 17:20 19:10 - 23:50 - - - - 06:20 06:40 23:50
Minimum _ 4,5 C 41 % 1017,6 hPa - 0,0 km/h (0 Bft) - - - - 2,5 C 4,5 C 0,0 km/h (0 Bft)
_ Max-Heure 17:00 09:20 11:10 23:50 18:10 - - 23:50 23:50 19:10 17:00 18:10
Maximum _ 24,0 C 90 % 1021,3 hPa 0,0 mm 11,2 km/h
NO (2 Bft)
- - 0 min 0 W/m 11,2 C 24,0 C 19,8 km/h
NO (3 Bft)
Moyenne _ 14,6 C 66 % 1019,8 hPa #0,0 mm 1,4 km/h (1 Bft) E-SE - #0 min. 0 W/m 7,6 C 14,6 C 2,9 km/h (1 Bft)
Saint Bonnet de Bellac- Haute Vienne - France